CZMT

Masset Airport

Masset, , Canada
METAR CZMT 230100Z 15018G28KT 8SM OVC005 12/11 A2962 RMK ST8 LAST STFD OBS/NEXT 231400 UTC SLP033
Observed Flight Rules
Oct-23 @ 01:00 UTC (9 hours ago) Instrument Flight Rules
Wind Visibility Clouds
150° at 18 knots
 Gusting to 28 knots
8 miles
  • Overcast at 500' AGL
Temperatures Readings
Current 12°C / 54°F
Dewpoint 11°C / 52°F
Humidity 94%
Altimeter 29.62" Hg
Pressure 1003.3 hPa
Elevation 8
METAR CZMT 230100Z 15018G28KT 8SM OVC005 12/11 A2962 RMK ST8 LAST STFD OBS/NEXT 231400 UTC SLP033
Observed Flight Rules
Oct-23 @ 01:00 UTC
(9 hours ago)
IFR
Wind Visibility
150° at 18 knots
 Gusting to 28 knots
8 miles
Clouds
  • Overcast at 500' AGL
Temperature Dewpoint
12°C / 54°F 11°C / 52°F
Humidity Altimeter Pressure
94% 29.62" Hg 1003.3 hPa